sensor_id;sensor_type;location;lat;lon;timestamp;temperature;humidity
11536;DHT22;5824;49.336;8.652;2023-04-06T00:00:39;2.30;1.00
11536;DHT22;5824;49.336;8.652;2023-04-06T00:03:04;2.30;1.00
11536;DHT22;5824;49.336;8.652;2023-04-06T00:05:30;2.30;1.00
11536;DHT22;5824;49.336;8.652;2023-04-06T00:07:57;2.20;1.00
11536;DHT22;5824;49.336;8.652;2023-04-06T00:10:23;2.10;1.00
11536;DHT22;5824;49.336;8.652;2023-04-06T00:12:49;2.00;1.00
11536;DHT22;5824;49.336;8.652;2023-04-06T00:15:14;1.90;1.00
11536;DHT22;5824;49.336;8.652;2023-04-06T00:17:40;1.80;1.00
11536;DHT22;5824;49.336;8.652;2023-04-06T00:20:06;1.80;1.00
11536;DHT22;5824;49.336;8.652;2023-04-06T00:22:32;1.70;1.00
11536;DHT22;5824;49.336;8.652;2023-04-06T00:24:57;1.60;1.00
11536;DHT22;5824;49.336;8.652;2023-04-06T00:27:23;1.60;1.00
11536;DHT22;5824;49.336;8.652;2023-04-06T00:29:49;1.60;1.00
11536;DHT22;5824;49.336;8.652;2023-04-06T00:32:14;1.60;1.00
11536;DHT22;5824;49.336;8.652;2023-04-06T00:34:40;1.70;1.00
11536;DHT22;5824;49.336;8.652;2023-04-06T00:37:05;4.60;1.00
11536;DHT22;5824;49.336;8.652;2023-04-06T00:39:31;2.00;1.00
11536;DHT22;5824;49.336;8.652;2023-04-06T00:41:56;2.10;1.00
11536;DHT22;5824;49.336;8.652;2023-04-06T00:44:23;2.30;1.00
11536;DHT22;5824;49.336;8.652;2023-04-06T00:46:48;2.30;1.00
11536;DHT22;5824;49.336;8.652;2023-04-06T00:49:14;2.30;1.00
11536;DHT22;5824;49.336;8.652;2023-04-06T00:51:40;2.30;1.00
11536;DHT22;5824;49.336;8.652;2023-04-06T00:54:05;2.40;1.00
11536;DHT22;5824;49.336;8.652;2023-04-06T00:56:31;2.50;1.00
11536;DHT22;5824;49.336;8.652;2023-04-06T00:58:57;2.50;1.00
11536;DHT22;5824;49.336;8.652;2023-04-06T01:01:23;2.50;1.00
11536;DHT22;5824;49.336;8.652;2023-04-06T01:03:49;2.50;1.00
11536;DHT22;5824;49.336;8.652;2023-04-06T01:06:15;2.50;1.00
11536;DHT22;5824;49.336;8.652;2023-04-06T01:08:41;2.40;1.00
11536;DHT22;5824;49.336;8.652;2023-04-06T01:11:07;2.40;1.00
11536;DHT22;5824;49.336;8.652;2023-04-06T01:13:32;2.40;1.00
11536;DHT22;5824;49.336;8.652;2023-04-06T01:15:58;2.40;1.00
11536;DHT22;5824;49.336;8.652;2023-04-06T01:18:27;2.40;1.00
11536;DHT22;5824;49.336;8.652;2023-04-06T01:20:53;2.40;1.00
11536;DHT22;5824;49.336;8.652;2023-04-06T01:23:19;2.40;1.00
11536;DHT22;5824;49.336;8.652;2023-04-06T01:25:45;2.30;1.00
11536;DHT22;5824;49.336;8.652;2023-04-06T01:28:10;2.20;1.00
11536;DHT22;5824;49.336;8.652;2023-04-06T01:30:36;2.20;1.00
11536;DHT22;5824;49.336;8.652;2023-04-06T01:33:02;2.20;1.00
11536;DHT22;5824;49.336;8.652;2023-04-06T01:35:28;2.20;1.00
11536;DHT22;5824;49.336;8.652;2023-04-06T01:37:53;2.20;1.00
11536;DHT22;5824;49.336;8.652;2023-04-06T01:40:19;2.10;1.00
11536;DHT22;5824;49.336;8.652;2023-04-06T01:42:44;2.10;1.00
11536;DHT22;5824;49.336;8.652;2023-04-06T01:45:10;2.00;1.00
11536;DHT22;5824;49.336;8.652;2023-04-06T01:47:36;2.00;1.00
11536;DHT22;5824;49.336;8.652;2023-04-06T01:50:03;2.00;1.00
11536;DHT22;5824;49.336;8.652;2023-04-06T01:52:32;2.00;1.00
11536;DHT22;5824;49.336;8.652;2023-04-06T01:54:57;1.90;1.00
11536;DHT22;5824;49.336;8.652;2023-04-06T01:57:23;1.90;1.00
11536;DHT22;5824;49.336;8.652;2023-04-06T01:59:48;1.80;1.00
11536;DHT22;5824;49.336;8.652;2023-04-06T02:02:14;1.80;1.00
11536;DHT22;5824;49.336;8.652;2023-04-06T02:04:40;1.80;1.00
11536;DHT22;5824;49.336;8.652;2023-04-06T02:07:05;1.80;1.00
11536;DHT22;5824;49.336;8.652;2023-04-06T02:09:31;1.80;1.00
11536;DHT22;5824;49.336;8.652;2023-04-06T02:11:56;1.70;1.00
11536;DHT22;5824;49.336;8.652;2023-04-06T02:14:25;1.60;1.00
11536;DHT22;5824;49.336;8.652;2023-04-06T02:16:51;1.60;1.00
11536;DHT22;5824;49.336;8.652;2023-04-06T02:19:16;1.60;1.00
11536;DHT22;5824;49.336;8.652;2023-04-06T02:21:42;1.50;1.00
11536;DHT22;5824;49.336;8.652;2023-04-06T02:24:07;1.50;1.00
11536;DHT22;5824;49.336;8.652;2023-04-06T02:26:33;1.40;1.00
11536;DHT22;5824;49.336;8.652;2023-04-06T02:28:59;1.40;1.00
11536;DHT22;5824;49.336;8.652;2023-04-06T02:31:24;1.40;1.00
11536;DHT22;5824;49.336;8.652;2023-04-06T02:33:50;1.40;1.00
11536;DHT22;5824;49.336;8.652;2023-04-06T02:36:15;1.30;1.00
11536;DHT22;5824;49.336;8.652;2023-04-06T02:38:41;1.20;1.00
11536;DHT22;5824;49.336;8.652;2023-04-06T02:41:07;1.30;1.00
11536;DHT22;5824;49.336;8.652;2023-04-06T02:43:33;1.30;1.00
11536;DHT22;5824;49.336;8.652;2023-04-06T02:45:58;1.30;1.00
11536;DHT22;5824;49.336;8.652;2023-04-06T02:48:24;1.20;1.00
11536;DHT22;5824;49.336;8.652;2023-04-06T02:50:50;1.20;1.00
11536;DHT22;5824;49.336;8.652;2023-04-06T02:53:15;1.20;1.00
11536;DHT22;5824;49.336;8.652;2023-04-06T02:55:41;1.20;1.00
11536;DHT22;5824;49.336;8.652;2023-04-06T02:58:06;0.90;1.00
11536;DHT22;5824;49.336;8.652;2023-04-06T03:00:32;1.30;1.00
11536;DHT22;5824;49.336;8.652;2023-04-06T03:02:57;1.30;1.00
11536;DHT22;5824;49.336;8.652;2023-04-06T03:05:23;1.30;1.00
11536;DHT22;5824;49.336;8.652;2023-04-06T03:07:48;1.20;1.00
11536;DHT22;5824;49.336;8.652;2023-04-06T03:10:14;1.20;1.00
11536;DHT22;5824;49.336;8.652;2023-04-06T03:12:40;1.20;1.00
11536;DHT22;5824;49.336;8.652;2023-04-06T03:15:07;1.20;1.00
11536;DHT22;5824;49.336;8.652;2023-04-06T03:17:33;1.20;1.00
11536;DHT22;5824;49.336;8.652;2023-04-06T03:19:58;1.20;1.00
11536;DHT22;5824;49.336;8.652;2023-04-06T03:22:24;1.20;1.00
11536;DHT22;5824;49.336;8.652;2023-04-06T03:24:50;1.20;1.00
11536;DHT22;5824;49.336;8.652;2023-04-06T03:27:15;1.20;1.00
11536;DHT22;5824;49.336;8.652;2023-04-06T03:29:41;1.20;1.00
11536;DHT22;5824;49.336;8.652;2023-04-06T03:32:06;1.10;1.00
11536;DHT22;5824;49.336;8.652;2023-04-06T03:34:32;1.20;1.00
11536;DHT22;5824;49.336;8.652;2023-04-06T03:36:57;1.20;1.00
11536;DHT22;5824;49.336;8.652;2023-04-06T03:39:23;1.20;1.00
11536;DHT22;5824;49.336;8.652;2023-04-06T03:41:49;1.30;1.00
11536;DHT22;5824;49.336;8.652;2023-04-06T03:44:14;1.30;1.00
11536;DHT22;5824;49.336;8.652;2023-04-06T03:46:40;1.30;1.00
11536;DHT22;5824;49.336;8.652;2023-04-06T03:49:05;1.30;1.00
11536;DHT22;5824;49.336;8.652;2023-04-06T03:51:31;1.30;1.00
11536;DHT22;5824;49.336;8.652;2023-04-06T03:53:57;1.30;1.00
11536;DHT22;5824;49.336;8.652;2023-04-06T03:56:22;1.30;1.00
11536;DHT22;5824;49.336;8.652;2023-04-06T03:58:48;1.30;1.00
11536;DHT22;5824;49.336;8.652;2023-04-06T04:01:19;1.30;1.00
11536;DHT22;5824;49.336;8.652;2023-04-06T04:03:45;1.20;1.00
11536;DHT22;5824;49.336;8.652;2023-04-06T04:06:10;1.20;1.00
11536;DHT22;5824;49.336;8.652;2023-04-06T04:08:36;1.20;1.00
11536;DHT22;5824;49.336;8.652;2023-04-06T04:11:01;1.20;1.00
11536;DHT22;5824;49.336;8.652;2023-04-06T04:13:27;1.20;1.00
11536;DHT22;5824;49.336;8.652;2023-04-06T04:15:53;1.10;1.00
11536;DHT22;5824;49.336;8.652;2023-04-06T04:18:18;1.10;1.00
11536;DHT22;5824;49.336;8.652;2023-04-06T04:20:44;1.10;1.00
11536;DHT22;5824;49.336;8.652;2023-04-06T04:23:10;1.00;1.00
11536;DHT22;5824;49.336;8.652;2023-04-06T04:25:35;1.00;1.00
11536;DHT22;5824;49.336;8.652;2023-04-06T04:28:01;1.00;1.00
11536;DHT22;5824;49.336;8.652;2023-04-06T04:30:27;1.00;1.00
11536;DHT22;5824;49.336;8.652;2023-04-06T04:32:52;0.90;1.00
11536;DHT22;5824;49.336;8.652;2023-04-06T04:35:18;0.80;1.00
11536;DHT22;5824;49.336;8.652;2023-04-06T04:37:44;0.80;1.00
11536;DHT22;5824;49.336;8.652;2023-04-06T04:40:10;0.80;1.00
11536;DHT22;5824;49.336;8.652;2023-04-06T04:42:35;0.80;1.00
11536;DHT22;5824;49.336;8.652;2023-04-06T04:45:01;0.80;1.00
11536;DHT22;5824;49.336;8.652;2023-04-06T04:47:27;0.80;1.00
11536;DHT22;5824;49.336;8.652;2023-04-06T04:49:52;0.80;1.00
11536;DHT22;5824;49.336;8.652;2023-04-06T04:52:18;0.80;1.00
11536;DHT22;5824;49.336;8.652;2023-04-06T04:54:43;0.90;1.00
11536;DHT22;5824;49.336;8.652;2023-04-06T04:57:09;0.80;1.00
11536;DHT22;5824;49.336;8.652;2023-04-06T04:59:35;0.90;1.00
11536;DHT22;5824;49.336;8.652;2023-04-06T05:02:00;0.90;1.00
11536;DHT22;5824;49.336;8.652;2023-04-06T05:04:26;1.00;1.00
11536;DHT22;5824;49.336;8.652;2023-04-06T05:07:06;1.00;1.00
11536;DHT22;5824;49.336;8.652;2023-04-06T05:09:31;1.00;1.00
11536;DHT22;5824;49.336;8.652;2023-04-06T05:11:58;1.10;1.00
11536;DHT22;5824;49.336;8.652;2023-04-06T05:14:25;1.20;1.00
11536;DHT22;5824;49.336;8.652;2023-04-06T05:16:51;1.20;1.00
11536;DHT22;5824;49.336;8.652;2023-04-06T05:19:16;1.20;1.00
11536;DHT22;5824;49.336;8.652;2023-04-06T05:21:42;1.30;1.00
11536;DHT22;5824;49.336;8.652;2023-04-06T05:24:07;1.30;1.00
11536;DHT22;5824;49.336;8.652;2023-04-06T05:26:34;1.30;1.00
11536;DHT22;5824;49.336;8.652;2023-04-06T05:28:59;1.30;1.00
11536;DHT22;5824;49.336;8.652;2023-04-06T05:31:25;1.40;1.00
11536;DHT22;5824;49.336;8.652;2023-04-06T05:33:51;1.40;1.00
11536;DHT22;5824;49.336;8.652;2023-04-06T05:36:16;1.50;1.00
11536;DHT22;5824;49.336;8.652;2023-04-06T05:38:42;1.50;1.00
11536;DHT22;5824;49.336;8.652;2023-04-06T05:41:07;1.60;1.00
11536;DHT22;5824;49.336;8.652;2023-04-06T05:43:33;1.60;1.00
11536;DHT22;5824;49.336;8.652;2023-04-06T05:45:58;1.70;1.00
11536;DHT22;5824;49.336;8.652;2023-04-06T05:48:24;1.80;1.00
11536;DHT22;5824;49.336;8.652;2023-04-06T05:50:50;1.80;1.00
11536;DHT22;5824;49.336;8.652;2023-04-06T05:53:16;2.00;1.00
11536;DHT22;5824;49.336;8.652;2023-04-06T05:55:41;2.20;1.00
11536;DHT22;5824;49.336;8.652;2023-04-06T05:58:07;2.50;1.00
11536;DHT22;5824;49.336;8.652;2023-04-06T06:00:33;2.70;1.00
11536;DHT22;5824;49.336;8.652;2023-04-06T06:02:58;2.80;1.00
11536;DHT22;5824;49.336;8.652;2023-04-06T06:05:24;2.90;1.00
11536;DHT22;5824;49.336;8.652;2023-04-06T06:07:50;3.00;1.00
11536;DHT22;5824;49.336;8.652;2023-04-06T06:10:15;3.10;1.00
11536;DHT22;5824;49.336;8.652;2023-04-06T06:12:41;3.30;1.00
11536;DHT22;5824;49.336;8.652;2023-04-06T06:15:07;3.50;1.00
11536;DHT22;5824;49.336;8.652;2023-04-06T06:17:32;3.60;1.00
11536;DHT22;5824;49.336;8.652;2023-04-06T06:19:58;3.80;1.00
11536;DHT22;5824;49.336;8.652;2023-04-06T06:22:23;4.00;1.00
11536;DHT22;5824;49.336;8.652;2023-04-06T06:24:49;4.20;1.00
11536;DHT22;5824;49.336;8.652;2023-04-06T06:27:15;4.40;1.00
11536;DHT22;5824;49.336;8.652;2023-04-06T06:29:41;5.10;1.00
11536;DHT22;5824;49.336;8.652;2023-04-06T06:32:07;4.70;1.00
11536;DHT22;5824;49.336;8.652;2023-04-06T06:34:35;5.00;1.00
11536;DHT22;5824;49.336;8.652;2023-04-06T06:37:00;5.10;1.00
11536;DHT22;5824;49.336;8.652;2023-04-06T06:39:27;5.30;1.00
11536;DHT22;5824;49.336;8.652;2023-04-06T06:41:53;5.70;1.00
11536;DHT22;5824;49.336;8.652;2023-04-06T06:44:20;6.80;1.00
11536;DHT22;5824;49.336;8.652;2023-04-06T06:46:47;6.80;1.00
11536;DHT22;5824;49.336;8.652;2023-04-06T06:49:12;7.50;1.00
11536;DHT22;5824;49.336;8.652;2023-04-06T06:51:39;7.90;1.00
11536;DHT22;5824;49.336;8.652;2023-04-06T06:54:05;8.60;1.00
11536;DHT22;5824;49.336;8.652;2023-04-06T06:56:31;9.00;1.00
11536;DHT22;5824;49.336;8.652;2023-04-06T06:58:56;9.00;1.00
11536;DHT22;5824;49.336;8.652;2023-04-06T07:01:22;8.60;1.00
11536;DHT22;5824;49.336;8.652;2023-04-06T07:03:47;8.20;1.00
11536;DHT22;5824;49.336;8.652;2023-04-06T07:06:13;8.00;1.00
11536;DHT22;5824;49.336;8.652;2023-04-06T07:08:38;8.10;1.00
11536;DHT22;5824;49.336;8.652;2023-04-06T07:11:04;8.50;1.00
11536;DHT22;5824;49.336;8.652;2023-04-06T07:13:30;8.80;1.00
11536;DHT22;5824;49.336;8.652;2023-04-06T07:15:55;8.80;1.00
11536;DHT22;5824;49.336;8.652;2023-04-06T07:18:22;8.70;1.00
11536;DHT22;5824;49.336;8.652;2023-04-06T07:20:48;8.50;1.00
11536;DHT22;5824;49.336;8.652;2023-04-06T07:23:14;8.40;1.00
11536;DHT22;5824;49.336;8.652;2023-04-06T07:25:39;8.40;1.00
11536;DHT22;5824;49.336;8.652;2023-04-06T07:28:05;10.60;1.00
11536;DHT22;5824;49.336;8.652;2023-04-06T07:30:31;9.20;1.00
11536;DHT22;5824;49.336;8.652;2023-04-06T07:32:56;10.20;1.00
11536;DHT22;5824;49.336;8.652;2023-04-06T07:53:30;14.40;1.00
11536;DHT22;5824;49.336;8.652;2023-04-06T07:55:56;15.00;1.00
11536;DHT22;5824;49.336;8.652;2023-04-06T08:03:34;14.90;1.00
11536;DHT22;5824;49.336;8.652;2023-04-06T08:06:00;15.30;1.00
11536;DHT22;5824;49.336;8.652;2023-04-06T08:08:25;15.70;1.00
11536;DHT22;5824;49.336;8.652;2023-04-06T08:10:51;16.10;1.00
11536;DHT22;5824;49.336;8.652;2023-04-06T08:28:47;17.30;1.00
11536;DHT22;5824;49.336;8.652;2023-04-06T08:31:13;17.40;1.00
11536;DHT22;5824;49.336;8.652;2023-04-06T08:44:02;18.90;1.00
11536;DHT22;5824;49.336;8.652;2023-04-06T08:46:29;18.70;1.00
11536;DHT22;5824;49.336;8.652;2023-04-06T08:49:00;19.00;1.00
11536;DHT22;5824;49.336;8.652;2023-04-06T08:51:28;19.70;1.00
11536;DHT22;5824;49.336;8.652;2023-04-06T09:01:40;21.40;1.00
11536;DHT22;5824;49.336;8.652;2023-04-06T09:04:08;21.40;1.00
11536;DHT22;5824;49.336;8.652;2023-04-06T09:11:52;21.60;1.00
11536;DHT22;5824;49.336;8.652;2023-04-06T09:14:36;21.70;1.00
11536;DHT22;5824;49.336;8.652;2023-04-06T09:22:17;23.80;1.00
11536;DHT22;5824;49.336;8.652;2023-04-06T09:24:51;24.00;1.00
11536;DHT22;5824;49.336;8.652;2023-04-06T09:27:17;24.70;1.00
11536;DHT22;5824;49.336;8.652;2023-04-06T09:29:44;25.00;1.00
11536;DHT22;5824;49.336;8.652;2023-04-06T09:32:11;24.80;1.00
11536;DHT22;5824;49.336;8.652;2023-04-06T09:34:38;25.90;1.00
11536;DHT22;5824;49.336;8.652;2023-04-06T09:37:17;26.10;1.00
11536;DHT22;5824;49.336;8.652;2023-04-06T09:39:43;26.00;1.00
11536;DHT22;5824;49.336;8.652;2023-04-06T09:44:44;26.20;1.00
11536;DHT22;5824;49.336;8.652;2023-04-06T09:47:10;26.30;1.00
11536;DHT22;5824;49.336;8.652;2023-04-06T09:54:55;27.00;1.00
11536;DHT22;5824;49.336;8.652;2023-04-06T09:57:25;26.90;1.00
11536;DHT22;5824;49.336;8.652;2023-04-06T10:05:26;27.70;1.00
11536;DHT22;5824;49.336;8.652;2023-04-06T10:07:55;28.10;1.00
11536;DHT22;5824;49.336;8.652;2023-04-06T10:10:22;28.10;1.00
11536;DHT22;5824;49.336;8.652;2023-04-06T10:12:48;28.50;1.00
11536;DHT22;5824;49.336;8.652;2023-04-06T10:15:15;29.10;1.00
11536;DHT22;5824;49.336;8.652;2023-04-06T10:17:41;29.60;1.00
11536;DHT22;5824;49.336;8.652;2023-04-06T10:23:14;29.70;1.00
11536;DHT22;5824;49.336;8.652;2023-04-06T10:25:56;29.10;1.00
11536;DHT22;5824;49.336;8.652;2023-04-06T10:31:00;28.30;1.00
11536;DHT22;5824;49.336;8.652;2023-04-06T10:33:27;28.40;1.00
11536;DHT22;5824;49.336;8.652;2023-04-06T10:35:52;28.50;1.00
11536;DHT22;5824;49.336;8.652;2023-04-06T10:38:19;29.00;1.00
11536;DHT22;5824;49.336;8.652;2023-04-06T10:40:49;28.60;1.00
11536;DHT22;5824;49.336;8.652;2023-04-06T10:43:20;28.50;1.00
11536;DHT22;5824;49.336;8.652;2023-04-06T10:45:59;27.90;1.00
11536;DHT22;5824;49.336;8.652;2023-04-06T10:58:34;28.90;1.00
11536;DHT22;5824;49.336;8.652;2023-04-06T11:11:16;26.10;1.00
11536;DHT22;5824;49.336;8.652;2023-04-06T11:21:17;27.70;1.00
11536;DHT22;5824;49.336;8.652;2023-04-06T11:28:54;27.50;1.00
11536;DHT22;5824;49.336;8.652;2023-04-06T11:31:25;27.90;1.00
11536;DHT22;5824;49.336;8.652;2023-04-06T11:33:58;28.20;1.00
11536;DHT22;5824;49.336;8.652;2023-04-06T11:51:55;26.20;1.00
11536;DHT22;5824;49.336;8.652;2023-04-06T11:54:33;26.70;1.00
11536;DHT22;5824;49.336;8.652;2023-04-06T11:56:59;28.10;1.00
11536;DHT22;5824;49.336;8.652;2023-04-06T11:59:26;28.60;1.00
11536;DHT22;5824;49.336;8.652;2023-04-06T12:09:39;29.30;1.00
11536;DHT22;5824;49.336;8.652;2023-04-06T12:25:02;26.40;1.00
11536;DHT22;5824;49.336;8.652;2023-04-06T12:43:28;29.80;1.00
11536;DHT22;5824;49.336;8.652;2023-04-06T12:45:53;27.90;1.00
11536;DHT22;5824;49.336;8.652;2023-04-06T12:56:14;28.80;1.00
11536;DHT22;5824;49.336;8.652;2023-04-06T12:58:40;29.20;1.00
11536;DHT22;5824;49.336;8.652;2023-04-06T13:01:08;29.50;1.00
11536;DHT22;5824;49.336;8.652;2023-04-06T13:08:45;27.90;1.00
11536;DHT22;5824;49.336;8.652;2023-04-06T13:11:12;27.50;1.00
11536;DHT22;5824;49.336;8.652;2023-04-06T13:13:38;26.30;1.00
11536;DHT22;5824;49.336;8.652;2023-04-06T13:16:08;26.00;1.00
11536;DHT22;5824;49.336;8.652;2023-04-06T13:21:12;26.20;1.00
11536;DHT22;5824;49.336;8.652;2023-04-06T13:23:40;26.30;1.00
11536;DHT22;5824;49.336;8.652;2023-04-06T13:28:49;25.70;1.00
11536;DHT22;5824;49.336;8.652;2023-04-06T13:38:48;26.30;1.00
11536;DHT22;5824;49.336;8.652;2023-04-06T13:41:19;25.50;1.00
11536;DHT22;5824;49.336;8.652;2023-04-06T13:43:46;26.30;1.00
11536;DHT22;5824;49.336;8.652;2023-04-06T13:46:11;26.40;1.00
11536;DHT22;5824;49.336;8.652;2023-04-06T13:48:37;25.80;1.00
11536;DHT22;5824;49.336;8.652;2023-04-06T14:01:17;23.30;1.00
11536;DHT22;5824;49.336;8.652;2023-04-06T14:08:44;21.80;1.00
11536;DHT22;5824;49.336;8.652;2023-04-06T14:11:13;20.90;1.00
11536;DHT22;5824;49.336;8.652;2023-04-06T14:13:39;20.50;1.00
11536;DHT22;5824;49.336;8.652;2023-04-06T14:16:06;20.40;1.00
11536;DHT22;5824;49.336;8.652;2023-04-06T14:29:05;18.80;1.00
11536;DHT22;5824;49.336;8.652;2023-04-06T14:31:31;18.90;1.00
11536;DHT22;5824;49.336;8.652;2023-04-06T14:47:07;19.30;1.00
11536;DHT22;5824;49.336;8.652;2023-04-06T14:49:32;19.00;1.00
11536;DHT22;5824;49.336;8.652;2023-04-06T14:57:01;18.70;1.00
11536;DHT22;5824;49.336;8.652;2023-04-06T14:59:27;18.80;1.00
11536;DHT22;5824;49.336;8.652;2023-04-06T15:01:53;18.70;1.00
11536;DHT22;5824;49.336;8.652;2023-04-06T15:04:18;18.60;1.00
11536;DHT22;5824;49.336;8.652;2023-04-06T15:09:21;18.70;1.00
11536;DHT22;5824;49.336;8.652;2023-04-06T15:16:57;18.70;1.00
11536;DHT22;5824;49.336;8.652;2023-04-06T15:21:58;18.40;1.00
11536;DHT22;5824;49.336;8.652;2023-04-06T15:26:59;18.30;1.00
11536;DHT22;5824;49.336;8.652;2023-04-06T15:34:30;18.10;1.00
11536;DHT22;5824;49.336;8.652;2023-04-06T15:37:00;17.50;1.00
11536;DHT22;5824;49.336;8.652;2023-04-06T15:39:26;17.20;1.00
11536;DHT22;5824;49.336;8.652;2023-04-06T15:49:43;16.50;1.00
11536;DHT22;5824;49.336;8.652;2023-04-06T16:02:23;16.30;1.00
11536;DHT22;5824;49.336;8.652;2023-04-06T16:12:25;16.00;1.00
11536;DHT22;5824;49.336;8.652;2023-04-06T16:22:34;15.70;1.00
11536;DHT22;5824;49.336;8.652;2023-04-06T16:25:01;15.50;1.00
11536;DHT22;5824;49.336;8.652;2023-04-06T16:27:26;15.30;1.00
11536;DHT22;5824;49.336;8.652;2023-04-06T16:29:52;15.30;1.00
11536;DHT22;5824;49.336;8.652;2023-04-06T16:42:23;15.50;1.00
11536;DHT22;5824;49.336;8.652;2023-04-06T16:47:15;15.40;1.00
11536;DHT22;5824;49.336;8.652;2023-04-06T16:49:42;15.30;1.00
11536;DHT22;5824;49.336;8.652;2023-04-06T16:59:55;15.10;1.00
11536;DHT22;5824;49.336;8.652;2023-04-06T17:04:48;14.90;1.00
11536;DHT22;5824;49.336;8.652;2023-04-06T17:09:49;14.70;1.00
11536;DHT22;5824;49.336;8.652;2023-04-06T17:17:17;14.40;1.00
11536;DHT22;5824;49.336;8.652;2023-04-06T17:19:42;14.20;1.00
11536;DHT22;5824;49.336;8.652;2023-04-06T17:22:09;13.90;1.00
11536;DHT22;5824;49.336;8.652;2023-04-06T17:24:35;13.90;1.00
11536;DHT22;5824;49.336;8.652;2023-04-06T17:32:02;13.70;1.00
11536;DHT22;5824;49.336;8.652;2023-04-06T17:34:29;13.50;1.00
11536;DHT22;5824;49.336;8.652;2023-04-06T17:47:15;13.30;1.00
11536;DHT22;5824;49.336;8.652;2023-04-06T17:54:43;12.90;1.00
11536;DHT22;5824;49.336;8.652;2023-04-06T18:10:11;12.80;1.00
11536;DHT22;5824;49.336;8.652;2023-04-06T18:30:48;12.50;1.00
11536;DHT22;5824;49.336;8.652;2023-04-06T18:53:51;12.10;1.00
11536;DHT22;5824;49.336;8.652;2023-04-06T18:56:17;12.20;1.00
11536;DHT22;5824;49.336;8.652;2023-04-06T19:08:57;11.70;1.00
11536;DHT22;5824;49.336;8.652;2023-04-06T19:11:24;11.70;1.00
11536;DHT22;5824;49.336;8.652;2023-04-06T19:19:01;11.60;1.00
11536;DHT22;5824;49.336;8.652;2023-04-06T19:21:26;11.60;1.00
11536;DHT22;5824;49.336;8.652;2023-04-06T19:57:25;11.20;1.00
11536;DHT22;5824;49.336;8.652;2023-04-06T20:17:59;10.20;1.00
11536;DHT22;5824;49.336;8.652;2023-04-06T20:25:35;9.90;1.00
11536;DHT22;5824;49.336;8.652;2023-04-06T20:48:52;9.70;1.00
11536;DHT22;5824;49.336;8.652;2023-04-06T20:53:53;9.70;1.00
11536;DHT22;5824;49.336;8.652;2023-04-06T20:56:19;9.60;1.00
11536;DHT22;5824;49.336;8.652;2023-04-06T20:58:46;9.60;1.00
11536;DHT22;5824;49.336;8.652;2023-04-06T21:01:15;9.40;1.00
11536;DHT22;5824;49.336;8.652;2023-04-06T21:14:03;9.40;1.00
11536;DHT22;5824;49.336;8.652;2023-04-06T21:21:39;9.40;1.00
11536;DHT22;5824;49.336;8.652;2023-04-06T21:24:05;9.40;1.00
11536;DHT22;5824;49.336;8.652;2023-04-06T21:26:30;9.40;1.00
11536;DHT22;5824;49.336;8.652;2023-04-06T21:28:56;9.50;1.00
11536;DHT22;5824;49.336;8.652;2023-04-06T21:31:21;9.40;1.00
11536;DHT22;5824;49.336;8.652;2023-04-06T21:33:47;9.20;1.00
11536;DHT22;5824;49.336;8.652;2023-04-06T21:36:13;9.30;1.00
11536;DHT22;5824;49.336;8.652;2023-04-06T21:38:38;9.20;1.00
11536;DHT22;5824;49.336;8.652;2023-04-06T21:41:04;9.10;1.00
11536;DHT22;5824;49.336;8.652;2023-04-06T21:43:31;9.00;1.00
11536;DHT22;5824;49.336;8.652;2023-04-06T21:45:56;9.00;1.00
11536;DHT22;5824;49.336;8.652;2023-04-06T21:48:22;9.00;1.00
11536;DHT22;5824;49.336;8.652;2023-04-06T21:50:48;8.90;1.00
11536;DHT22;5824;49.336;8.652;2023-04-06T21:53:13;8.90;1.00
11536;DHT22;5824;49.336;8.652;2023-04-06T21:55:45;9.00;1.00
11536;DHT22;5824;49.336;8.652;2023-04-06T21:58:12;9.00;1.00
11536;DHT22;5824;49.336;8.652;2023-04-06T22:00:38;9.00;1.00
11536;DHT22;5824;49.336;8.652;2023-04-06T22:03:04;9.00;1.00
11536;DHT22;5824;49.336;8.652;2023-04-06T22:05:31;9.00;1.00
11536;DHT22;5824;49.336;8.652;2023-04-06T22:07:58;9.00;1.00
11536;DHT22;5824;49.336;8.652;2023-04-06T22:10:27;8.90;1.00
11536;DHT22;5824;49.336;8.652;2023-04-06T22:12:53;9.60;1.00
11536;DHT22;5824;49.336;8.652;2023-04-06T22:15:20;9.10;1.00
11536;DHT22;5824;49.336;8.652;2023-04-06T22:17:45;8.90;1.00
11536;DHT22;5824;49.336;8.652;2023-04-06T22:20:11;8.90;1.00
11536;DHT22;5824;49.336;8.652;2023-04-06T22:22:37;8.80;1.00
11536;DHT22;5824;49.336;8.652;2023-04-06T22:25:03;8.80;1.00
11536;DHT22;5824;49.336;8.652;2023-04-06T22:27:29;8.70;1.00
11536;DHT22;5824;49.336;8.652;2023-04-06T22:29:55;8.70;1.00
11536;DHT22;5824;49.336;8.652;2023-04-06T22:32:20;8.60;1.00
11536;DHT22;5824;49.336;8.652;2023-04-06T22:34:46;8.60;1.00
11536;DHT22;5824;49.336;8.652;2023-04-06T22:37:12;8.50;1.00
11536;DHT22;5824;49.336;8.652;2023-04-06T22:39:37;8.40;1.00
11536;DHT22;5824;49.336;8.652;2023-04-06T22:42:04;8.40;1.00
11536;DHT22;5824;49.336;8.652;2023-04-06T22:44:30;8.40;1.00
11536;DHT22;5824;49.336;8.652;2023-04-06T22:46:56;8.30;1.00
11536;DHT22;5824;49.336;8.652;2023-04-06T22:49:22;8.60;1.00
11536;DHT22;5824;49.336;8.652;2023-04-06T22:51:47;8.30;1.00
11536;DHT22;5824;49.336;8.652;2023-04-06T22:54:13;8.40;1.00
11536;DHT22;5824;49.336;8.652;2023-04-06T22:56:39;8.40;1.00
11536;DHT22;5824;49.336;8.652;2023-04-06T22:59:04;8.40;1.00
11536;DHT22;5824;49.336;8.652;2023-04-06T23:01:31;8.40;1.00
11536;DHT22;5824;49.336;8.652;2023-04-06T23:03:56;8.40;1.00
11536;DHT22;5824;49.336;8.652;2023-04-06T23:06:22;8.40;1.00
11536;DHT22;5824;49.336;8.652;2023-04-06T23:08:47;8.50;1.00
11536;DHT22;5824;49.336;8.652;2023-04-06T23:11:13;8.50;1.00
11536;DHT22;5824;49.336;8.652;2023-04-06T23:13:39;8.50;1.00
11536;DHT22;5824;49.336;8.652;2023-04-06T23:16:04;8.50;1.00
11536;DHT22;5824;49.336;8.652;2023-04-06T23:18:33;8.50;1.00
11536;DHT22;5824;49.336;8.652;2023-04-06T23:20:58;8.50;1.00
11536;DHT22;5824;49.336;8.652;2023-04-06T23:23:24;8.50;1.00
11536;DHT22;5824;49.336;8.652;2023-04-06T23:25:50;8.50;1.00
11536;DHT22;5824;49.336;8.652;2023-04-06T23:28:17;8.50;1.00
11536;DHT22;5824;49.336;8.652;2023-04-06T23:30:43;8.60;1.00
11536;DHT22;5824;49.336;8.652;2023-04-06T23:33:08;8.50;1.00
11536;DHT22;5824;49.336;8.652;2023-04-06T23:35:34;8.50;1.00
11536;DHT22;5824;49.336;8.652;2023-04-06T23:37:59;8.50;1.00
11536;DHT22;5824;49.336;8.652;2023-04-06T23:40:25;8.50;1.00
11536;DHT22;5824;49.336;8.652;2023-04-06T23:42:51;8.60;1.00
11536;DHT22;5824;49.336;8.652;2023-04-06T23:45:16;8.60;1.00
11536;DHT22;5824;49.336;8.652;2023-04-06T23:47:42;8.60;1.00
11536;DHT22;5824;49.336;8.652;2023-04-06T23:50:08;8.60;1.00
11536;DHT22;5824;49.336;8.652;2023-04-06T23:52:33;8.60;1.00
11536;DHT22;5824;49.336;8.652;2023-04-06T23:54:59;8.50;1.00
11536;DHT22;5824;49.336;8.652;2023-04-06T23:57:24;8.50;1.00
11536;DHT22;5824;49.336;8.652;2023-04-06T23:59:50;8.50;1.00
